Townville, Pennsylvania
Current Conditions -  °F | °C
As of 1:53 PM on Monday 20 Oct 2014 (Local Time) from KGKJ Reporting Station
Overcast Overcast  
Wind Chill: 54°   Ceiling: 8000
Heat Index: 54°   Visibility: 10mi
Dew Point: 41°   Wind: 12mph
Humidity: 62%   Direction: 220°SW
Pressure: 29.87"   Gusts: NA
Location:  41.68°N, 79.88°W
Report Text: KGKJ 201753Z AUTO 22010KT 10SM SCT030 OVC080 12/05 A2987 RMK AO2 SLP118 60000 T01220050 10122 20067 56020 TSNO
Loading
Personal Weather Stations






























Interactive Weather Map
Tropical Storm Tracking
New forecast layout! Learn more

10-Day Weather Forecast

Advertisements
Track Severe Weather on mobile